sensor_id;sensor_type;location;lat;lon;timestamp;pressure;altitude;pressure_sealevel;temperature;humidity
75646;BME280;64237;52.438;13.240;2022-11-20T00:01:12;100725.44;;;0.85;84.06
75646;BME280;64237;52.438;13.240;2022-11-20T00:03:38;100737.28;;;0.92;84.64
75646;BME280;64237;52.438;13.240;2022-11-20T00:06:06;100731.28;;;0.74;84.77
75646;BME280;64237;52.438;13.240;2022-11-20T00:08:32;100726.53;;;0.67;84.05
75646;BME280;64237;52.438;13.240;2022-11-20T00:11:09;100729.91;;;0.78;85.71
75646;BME280;64237;52.438;13.240;2022-11-20T00:13:34;100724.41;;;0.86;84.80
75646;BME280;64237;52.438;13.240;2022-11-20T00:16:02;100727.84;;;0.80;85.22
75646;BME280;64237;52.438;13.240;2022-11-20T00:18:28;100719.91;;;0.70;85.62
75646;BME280;64237;52.438;13.240;2022-11-20T00:21:00;100713.31;;;0.64;85.69
75646;BME280;64237;52.438;13.240;2022-11-20T00:23:25;100721.28;;;0.66;84.73
75646;BME280;64237;52.438;13.240;2022-11-20T00:25:51;100722.38;;;0.57;84.99
75646;BME280;64237;52.438;13.240;2022-11-20T00:28:16;100726.25;;;0.62;84.48
75646;BME280;64237;52.438;13.240;2022-11-20T00:30:42;100722.38;;;0.57;86.08
75646;BME280;64237;52.438;13.240;2022-11-20T00:33:07;100721.56;;;0.48;84.75
75646;BME280;64237;52.438;13.240;2022-11-20T00:35:32;100717.09;;;0.55;86.50
75646;BME280;64237;52.438;13.240;2022-11-20T00:37:58;100724.56;;;0.61;85.32
75646;BME280;64237;52.438;13.240;2022-11-20T00:40:23;100707.94;;;0.48;85.87
75646;BME280;64237;52.438;13.240;2022-11-20T00:42:48;100731.41;;;0.49;84.79
75646;BME280;64237;52.438;13.240;2022-11-20T00:45:14;100725.63;;;0.52;85.95
75646;BME280;64237;52.438;13.240;2022-11-20T00:47:39;100720.88;;;0.46;84.91
75646;BME280;64237;52.438;13.240;2022-11-20T00:50:04;100727.09;;;0.63;86.21
75646;BME280;64237;52.438;13.240;2022-11-20T00:52:30;100729.66;;;0.64;84.56
75646;BME280;64237;52.438;13.240;2022-11-20T00:54:55;100734.31;;;0.48;84.66
75646;BME280;64237;52.438;13.240;2022-11-20T00:57:20;100725.97;;;0.49;85.75
75646;BME280;64237;52.438;13.240;2022-11-20T00:59:46;100732.44;;;0.48;85.75
75646;BME280;64237;52.438;13.240;2022-11-20T01:02:11;100727.47;;;0.60;86.58
75646;BME280;64237;52.438;13.240;2022-11-20T01:04:36;100726.63;;;0.59;86.02
75646;BME280;64237;52.438;13.240;2022-11-20T01:07:02;100727.00;;;0.48;84.56
75646;BME280;64237;52.438;13.240;2022-11-20T01:09:27;100730.25;;;0.44;85.75
75646;BME280;64237;52.438;13.240;2022-11-20T01:11:52;100732.75;;;0.53;86.13
75646;BME280;64237;52.438;13.240;2022-11-20T01:14:19;100731.09;;;0.44;84.34
75646;BME280;64237;52.438;13.240;2022-11-20T01:16:49;100720.97;;;0.30;84.97
75646;BME280;64237;52.438;13.240;2022-11-20T01:19:24;100718.09;;;0.31;85.30
75646;BME280;64237;52.438;13.240;2022-11-20T01:21:51;100722.66;;;0.31;85.75
75646;BME280;64237;52.438;13.240;2022-11-20T01:24:19;100717.09;;;0.24;84.52
75646;BME280;64237;52.438;13.240;2022-11-20T01:26:47;100719.34;;;0.21;84.93
75646;BME280;64237;52.438;13.240;2022-11-20T01:29:16;100714.88;;;0.28;85.50
75646;BME280;64237;52.438;13.240;2022-11-20T01:31:43;100722.09;;;0.05;85.05
75646;BME280;64237;52.438;13.240;2022-11-20T01:34:17;100714.44;;;0.16;85.79
75646;BME280;64237;52.438;13.240;2022-11-20T01:36:43;100717.38;;;0.38;86.15
75646;BME280;64237;52.438;13.240;2022-11-20T01:39:22;100717.72;;;0.34;85.36
75646;BME280;64237;52.438;13.240;2022-11-20T01:41:49;100716.97;;;0.18;84.94
75646;BME280;64237;52.438;13.240;2022-11-20T01:44:53;100715.44;;;0.46;85.34
75646;BME280;64237;52.438;13.240;2022-11-20T01:47:30;100716.53;;;0.37;86.54
75646;BME280;64237;52.438;13.240;2022-11-20T01:50:13;100711.19;;;0.44;86.37
75646;BME280;64237;52.438;13.240;2022-11-20T01:52:47;100715.19;;;0.33;85.80
75646;BME280;64237;52.438;13.240;2022-11-20T01:55:19;100718.81;;;0.56;86.18
75646;BME280;64237;52.438;13.240;2022-11-20T01:57:45;100705.75;;;0.44;85.88
75646;BME280;64237;52.438;13.240;2022-11-20T02:00:14;100711.78;;;0.31;84.78
75646;BME280;64237;52.438;13.240;2022-11-20T02:03:11;100714.84;;;0.36;84.67
75646;BME280;64237;52.438;13.240;2022-11-20T02:08:28;100707.94;;;0.48;84.30
75646;BME280;64237;52.438;13.240;2022-11-20T02:10:53;100701.63;;;0.25;84.03
75646;BME280;64237;52.438;13.240;2022-11-20T02:13:19;100703.94;;;0.36;85.00
75646;BME280;64237;52.438;13.240;2022-11-20T02:16:03;100707.06;;;0.25;83.84
75646;BME280;64237;52.438;13.240;2022-11-20T02:18:29;100700.56;;;0.34;83.24
75646;BME280;64237;52.438;13.240;2022-11-20T02:24:13;100704.81;;;-0.03;83.67
75646;BME280;64237;52.438;13.240;2022-11-20T02:26:45;100692.03;;;0.06;84.29
75646;BME280;64237;52.438;13.240;2022-11-20T02:29:14;100689.13;;;0.08;83.96
75646;BME280;64237;52.438;13.240;2022-11-20T02:31:42;100692.16;;;0.13;84.37
75646;BME280;64237;52.438;13.240;2022-11-20T02:34:08;100691.34;;;0.04;84.99
75646;BME280;64237;52.438;13.240;2022-11-20T02:36:35;100686.47;;;-0.01;84.47
75646;BME280;64237;52.438;13.240;2022-11-20T02:39:03;100690.06;;;-0.08;83.36
75646;BME280;64237;52.438;13.240;2022-11-20T02:41:36;100685.81;;;-0.11;84.12
75646;BME280;64237;52.438;13.240;2022-11-20T02:44:02;100686.91;;;-0.28;84.61
75646;BME280;64237;52.438;13.240;2022-11-20T02:46:28;100685.53;;;-0.24;85.01
75646;BME280;64237;52.438;13.240;2022-11-20T02:48:54;100683.09;;;-0.19;85.02
75646;BME280;64237;52.438;13.240;2022-11-20T02:51:19;100685.03;;;-0.27;84.28
75646;BME280;64237;52.438;13.240;2022-11-20T02:53:44;100681.38;;;-0.12;85.31
75646;BME280;64237;52.438;13.240;2022-11-20T02:56:10;100685.13;;;-0.13;83.70
75646;BME280;64237;52.438;13.240;2022-11-20T02:58:35;100676.53;;;-0.24;83.00
75646;BME280;64237;52.438;13.240;2022-11-20T03:01:00;100678.53;;;-0.18;83.98
75646;BME280;64237;52.438;13.240;2022-11-20T03:03:26;100675.97;;;-0.20;83.37
75646;BME280;64237;52.438;13.240;2022-11-20T03:05:51;100678.75;;;-0.36;83.51
75646;BME280;64237;52.438;13.240;2022-11-20T03:08:16;100670.66;;;-0.44;84.01
75646;BME280;64237;52.438;13.240;2022-11-20T03:10:42;100674.00;;;-0.34;84.80
75646;BME280;64237;52.438;13.240;2022-11-20T03:13:07;100670.31;;;-0.49;84.12
75646;BME280;64237;52.438;13.240;2022-11-20T03:15:32;100667.59;;;-0.57;83.73
75646;BME280;64237;52.438;13.240;2022-11-20T03:17:58;100663.53;;;-0.53;84.33
75646;BME280;64237;52.438;13.240;2022-11-20T03:20:23;100670.59;;;-0.36;86.17
75646;BME280;64237;52.438;13.240;2022-11-20T03:22:49;100654.34;;;-0.44;84.47
75646;BME280;64237;52.438;13.240;2022-11-20T03:25:14;100654.34;;;-0.52;84.51
75646;BME280;64237;52.438;13.240;2022-11-20T03:27:39;100659.16;;;-0.71;84.33
75646;BME280;64237;52.438;13.240;2022-11-20T03:30:05;100652.38;;;-0.66;84.50
75646;BME280;64237;52.438;13.240;2022-11-20T03:32:31;100656.28;;;-0.77;85.02
75646;BME280;64237;52.438;13.240;2022-11-20T03:34:56;100654.69;;;-0.55;84.77
75646;BME280;64237;52.438;13.240;2022-11-20T03:37:21;100653.03;;;-0.73;84.11
75646;BME280;64237;52.438;13.240;2022-11-20T03:39:47;100651.50;;;-0.67;85.29
75646;BME280;64237;52.438;13.240;2022-11-20T03:42:12;100642.53;;;-0.76;85.14
75646;BME280;64237;52.438;13.240;2022-11-20T03:44:56;100654.22;;;-0.75;85.38
75646;BME280;64237;52.438;13.240;2022-11-20T03:47:21;100653.72;;;-0.71;85.07
75646;BME280;64237;52.438;13.240;2022-11-20T03:49:47;100653.38;;;-0.67;84.65
75646;BME280;64237;52.438;13.240;2022-11-20T03:52:12;100659.28;;;-0.56;85.44
75646;BME280;64237;52.438;13.240;2022-11-20T03:54:38;100651.53;;;-0.75;84.86
75646;BME280;64237;52.438;13.240;2022-11-20T03:57:03;100653.22;;;-0.66;85.07
75646;BME280;64237;52.438;13.240;2022-11-20T03:59:28;100648.59;;;-0.57;85.13
75646;BME280;64237;52.438;13.240;2022-11-20T04:01:54;100659.63;;;-0.59;84.08
75646;BME280;64237;52.438;13.240;2022-11-20T04:04:19;100658.94;;;-0.61;84.59
75646;BME280;64237;52.438;13.240;2022-11-20T04:06:44;100655.25;;;-0.68;85.06
75646;BME280;64237;52.438;13.240;2022-11-20T04:09:10;100650.47;;;-0.58;84.72
75646;BME280;64237;52.438;13.240;2022-11-20T04:11:37;100647.72;;;-0.50;86.10
75646;BME280;64237;52.438;13.240;2022-11-20T04:14:06;100652.19;;;-0.18;85.83
75646;BME280;64237;52.438;13.240;2022-11-20T04:16:33;100654.88;;;-0.10;83.86
75646;BME280;64237;52.438;13.240;2022-11-20T04:19:01;100650.13;;;-0.16;84.26
75646;BME280;64237;52.438;13.240;2022-11-20T04:21:27;100651.91;;;-0.31;84.66
75646;BME280;64237;52.438;13.240;2022-11-20T04:23:53;100640.34;;;-0.25;84.70
75646;BME280;64237;52.438;13.240;2022-11-20T04:26:20;100647.59;;;-0.17;84.65
75646;BME280;64237;52.438;13.240;2022-11-20T04:28:46;100647.94;;;-0.12;84.98
75646;BME280;64237;52.438;13.240;2022-11-20T04:31:16;100648.78;;;-0.20;84.58
75646;BME280;64237;52.438;13.240;2022-11-20T04:33:42;100648.50;;;-0.33;84.16
75646;BME280;64237;52.438;13.240;2022-11-20T04:36:14;100650.50;;;-0.19;85.01
75646;BME280;64237;52.438;13.240;2022-11-20T04:38:41;100654.91;;;-0.18;84.04
75646;BME280;64237;52.438;13.240;2022-11-20T04:41:08;100652.91;;;-0.24;84.10
75646;BME280;64237;52.438;13.240;2022-11-20T04:43:34;100646.81;;;-0.34;84.80
75646;BME280;64237;52.438;13.240;2022-11-20T04:46:00;100652.09;;;-0.41;84.47
75646;BME280;64237;52.438;13.240;2022-11-20T04:48:27;100644.44;;;-0.37;85.29
75646;BME280;64237;52.438;13.240;2022-11-20T04:50:52;100646.25;;;-0.21;84.63
75646;BME280;64237;52.438;13.240;2022-11-20T04:53:19;100655.47;;;-0.30;83.85
75646;BME280;64237;52.438;13.240;2022-11-20T04:55:45;100644.94;;;-0.25;85.03
75646;BME280;64237;52.438;13.240;2022-11-20T04:58:11;100647.00;;;0.04;85.82
75646;BME280;64237;52.438;13.240;2022-11-20T05:00:37;100626.69;;;-0.09;84.29
75646;BME280;64237;52.438;13.240;2022-11-20T05:03:02;100633.97;;;-0.01;83.48
75646;BME280;64237;52.438;13.240;2022-11-20T05:05:28;100630.09;;;-0.15;83.30
75646;BME280;64237;52.438;13.240;2022-11-20T05:07:56;100630.59;;;-0.11;84.04
75646;BME280;64237;52.438;13.240;2022-11-20T05:10:21;100624.22;;;-0.35;84.78
75646;BME280;64237;52.438;13.240;2022-11-20T05:12:47;100614.63;;;-0.14;83.81
75646;BME280;64237;52.438;13.240;2022-11-20T05:15:12;100615.47;;;-0.14;83.67
75646;BME280;64237;52.438;13.240;2022-11-20T05:17:37;100619.06;;;-0.21;83.78
75646;BME280;64237;52.438;13.240;2022-11-20T05:20:03;100611.31;;;-0.32;84.33
75646;BME280;64237;52.438;13.240;2022-11-20T05:22:28;100604.00;;;-0.32;85.31
75646;BME280;64237;52.438;13.240;2022-11-20T05:24:53;100612.00;;;-0.39;84.97
75646;BME280;64237;52.438;13.240;2022-11-20T05:27:20;100615.22;;;-0.27;84.80
75646;BME280;64237;52.438;13.240;2022-11-20T05:29:45;100599.09;;;-0.28;85.59
75646;BME280;64237;52.438;13.240;2022-11-20T05:32:10;100610.09;;;-0.22;85.21
75646;BME280;64237;52.438;13.240;2022-11-20T05:34:36;100608.09;;;-0.28;84.94
75646;BME280;64237;52.438;13.240;2022-11-20T05:37:02;100613.38;;;-0.35;85.68
75646;BME280;64237;52.438;13.240;2022-11-20T05:39:28;100621.00;;;-0.30;86.28
75646;BME280;64237;52.438;13.240;2022-11-20T05:41:53;100598.91;;;-0.27;86.72
75646;BME280;64237;52.438;13.240;2022-11-20T05:44:39;100606.94;;;-0.03;85.30
75646;BME280;64237;52.438;13.240;2022-11-20T05:47:04;100614.69;;;0.09;84.99
75646;BME280;64237;52.438;13.240;2022-11-20T05:49:30;100599.38;;;0.08;84.88
75646;BME280;64237;52.438;13.240;2022-11-20T05:51:55;100585.53;;;-0.06;84.53
75646;BME280;64237;52.438;13.240;2022-11-20T05:54:21;100598.13;;;-0.05;84.73
75646;BME280;64237;52.438;13.240;2022-11-20T05:56:46;100599.06;;;0.03;84.85
75646;BME280;64237;52.438;13.240;2022-11-20T05:59:11;100597.75;;;-0.02;85.14
75646;BME280;64237;52.438;13.240;2022-11-20T06:01:37;100604.50;;;0.03;84.60
75646;BME280;64237;52.438;13.240;2022-11-20T06:04:02;100601.13;;;0.00;84.63
75646;BME280;64237;52.438;13.240;2022-11-20T06:06:28;100613.34;;;0.05;83.72
75646;BME280;64237;52.438;13.240;2022-11-20T06:08:54;100606.94;;;-0.03;84.18
75646;BME280;64237;52.438;13.240;2022-11-20T06:11:19;100605.16;;;0.13;84.15
75646;BME280;64237;52.438;13.240;2022-11-20T06:13:45;100597.19;;;0.03;83.96
75646;BME280;64237;52.438;13.240;2022-11-20T06:16:13;100594.88;;;0.00;83.87
75646;BME280;64237;52.438;13.240;2022-11-20T06:18:39;100596.91;;;-0.02;84.00
75646;BME280;64237;52.438;13.240;2022-11-20T06:21:07;100589.31;;;-0.15;83.89
75646;BME280;64237;52.438;13.240;2022-11-20T06:23:33;100600.50;;;-0.10;84.02
75646;BME280;64237;52.438;13.240;2022-11-20T06:26:04;100594.38;;;-0.04;83.95
75646;BME280;64237;52.438;13.240;2022-11-20T06:28:29;100595.75;;;-0.08;84.32
75646;BME280;64237;52.438;13.240;2022-11-20T06:30:55;100596.53;;;0.01;84.24
75646;BME280;64237;52.438;13.240;2022-11-20T06:33:20;100608.00;;;-0.12;84.19
75646;BME280;64237;52.438;13.240;2022-11-20T06:35:45;100597.81;;;-0.18;84.79
75646;BME280;64237;52.438;13.240;2022-11-20T06:38:11;100591.44;;;-0.25;84.66
75646;BME280;64237;52.438;13.240;2022-11-20T06:40:40;100596.75;;;-0.01;84.36
75646;BME280;64237;52.438;13.240;2022-11-20T06:43:08;100603.19;;;-0.02;84.32
75646;BME280;64237;52.438;13.240;2022-11-20T06:45:34;100596.31;;;0.11;83.13
75646;BME280;64237;52.438;13.240;2022-11-20T06:48:00;100598.38;;;0.09;84.28
75646;BME280;64237;52.438;13.240;2022-11-20T06:50:25;100601.13;;;0.00;83.83
75646;BME280;64237;52.438;13.240;2022-11-20T06:52:50;100590.06;;;0.02;83.05
75646;BME280;64237;52.438;13.240;2022-11-20T06:55:16;100593.94;;;0.08;83.50
75646;BME280;64237;52.438;13.240;2022-11-20T06:57:41;100594.63;;;0.10;83.65
75646;BME280;64237;52.438;13.240;2022-11-20T07:00:07;100591.06;;;0.09;82.85
75646;BME280;64237;52.438;13.240;2022-11-20T07:02:32;100593.25;;;0.14;83.74
75646;BME280;64237;52.438;13.240;2022-11-20T07:04:57;100595.50;;;0.33;82.36
75646;BME280;64237;52.438;13.240;2022-11-20T07:07:23;100590.66;;;0.43;81.85
75646;BME280;64237;52.438;13.240;2022-11-20T07:09:48;100593.06;;;0.38;81.83
75646;BME280;64237;52.438;13.240;2022-11-20T07:12:14;100595.34;;;0.26;81.75
75646;BME280;64237;52.438;13.240;2022-11-20T07:14:39;100586.72;;;0.23;82.49
75646;BME280;64237;52.438;13.240;2022-11-20T07:17:04;100595.72;;;0.46;82.27
75646;BME280;64237;52.438;13.240;2022-11-20T07:19:30;100590.28;;;0.46;82.01
75646;BME280;64237;52.438;13.240;2022-11-20T07:21:55;100587.63;;;0.38;82.58
75646;BME280;64237;52.438;13.240;2022-11-20T07:24:20;100588.72;;;0.29;81.81
75646;BME280;64237;52.438;13.240;2022-11-20T07:26:47;100586.66;;;0.31;82.26
75646;BME280;64237;52.438;13.240;2022-11-20T07:29:14;100580.03;;;4.46;93.51
75646;BME280;64237;52.438;13.240;2022-11-20T07:31:41;100576.34;;;1.75;77.29
75646;BME280;64237;52.438;13.240;2022-11-20T07:34:06;100575.16;;;1.04;78.76
75646;BME280;64237;52.438;13.240;2022-11-20T07:36:31;100581.38;;;0.75;81.66
75646;BME280;64237;52.438;13.240;2022-11-20T07:38:57;100581.88;;;0.56;80.07
75646;BME280;64237;52.438;13.240;2022-11-20T07:41:22;100591.19;;;0.61;81.12
75646;BME280;64237;52.438;13.240;2022-11-20T07:43:48;100586.53;;;0.47;80.56
75646;BME280;64237;52.438;13.240;2022-11-20T07:46:13;100590.84;;;0.42;80.56
75646;BME280;64237;52.438;13.240;2022-11-20T07:48:39;100591.56;;;0.36;79.79
75646;BME280;64237;52.438;13.240;2022-11-20T07:51:05;100581.34;;;0.15;80.52
75646;BME280;64237;52.438;13.240;2022-11-20T07:53:30;100587.69;;;0.30;80.76
75646;BME280;64237;52.438;13.240;2022-11-20T07:56:00;100584.97;;;0.30;80.37
75646;BME280;64237;52.438;13.240;2022-11-20T07:58:28;100578.69;;;0.29;81.20
75646;BME280;64237;52.438;13.240;2022-11-20T08:00:54;100581.56;;;0.28;80.36
75646;BME280;64237;52.438;13.240;2022-11-20T08:03:20;100570.59;;;0.21;79.96
75646;BME280;64237;52.438;13.240;2022-11-20T08:05:45;100563.63;;;0.19;80.89
75646;BME280;64237;52.438;13.240;2022-11-20T08:08:10;100578.00;;;0.27;80.77
75646;BME280;64237;52.438;13.240;2022-11-20T08:10:36;100579.34;;;0.31;81.76
75646;BME280;64237;52.438;13.240;2022-11-20T08:13:01;100568.91;;;0.20;80.34
75646;BME280;64237;52.438;13.240;2022-11-20T08:15:49;100576.50;;;0.25;80.98
75646;BME280;64237;52.438;13.240;2022-11-20T08:18:16;100569.66;;;0.29;81.00
75646;BME280;64237;52.438;13.240;2022-11-20T08:20:42;100578.38;;;0.47;81.07
75646;BME280;64237;52.438;13.240;2022-11-20T08:23:08;100574.38;;;0.58;81.69
75646;BME280;64237;52.438;13.240;2022-11-20T08:25:34;100574.28;;;0.66;80.38
75646;BME280;64237;52.438;13.240;2022-11-20T08:28:07;100571.78;;;0.64;79.36
75646;BME280;64237;52.438;13.240;2022-11-20T08:30:33;100578.91;;;0.65;79.10
75646;BME280;64237;52.438;13.240;2022-11-20T08:33:07;100573.00;;;0.62;80.83
75646;BME280;64237;52.438;13.240;2022-11-20T08:35:37;100569.13;;;0.56;79.26
75646;BME280;64237;52.438;13.240;2022-11-20T08:38:03;100573.22;;;0.52;80.44
75646;BME280;64237;52.438;13.240;2022-11-20T08:40:29;100566.72;;;0.61;81.29
75646;BME280;64237;52.438;13.240;2022-11-20T08:42:54;100561.34;;;0.68;80.82
75646;BME280;64237;52.438;13.240;2022-11-20T08:45:19;100555.91;;;0.68;81.17
75646;BME280;64237;52.438;13.240;2022-11-20T08:47:45;100558.44;;;0.69;81.70
75646;BME280;64237;52.438;13.240;2022-11-20T08:50:13;100562.28;;;0.60;80.58
75646;BME280;64237;52.438;13.240;2022-11-20T08:52:38;100581.44;;;0.67;80.28
75646;BME280;64237;52.438;13.240;2022-11-20T08:55:05;100557.13;;;0.65;81.89
75646;BME280;64237;52.438;13.240;2022-11-20T08:57:32;100574.06;;;0.76;81.16
75646;BME280;64237;52.438;13.240;2022-11-20T08:59:58;100570.09;;;0.63;79.56
75646;BME280;64237;52.438;13.240;2022-11-20T09:02:23;100568.41;;;0.62;79.39
75646;BME280;64237;52.438;13.240;2022-11-20T09:04:48;100555.38;;;0.73;80.21
75646;BME280;64237;52.438;13.240;2022-11-20T09:07:14;100560.25;;;0.77;80.29
75646;BME280;64237;52.438;13.240;2022-11-20T09:09:39;100559.06;;;0.80;80.79
75646;BME280;64237;52.438;13.240;2022-11-20T09:12:04;100554.34;;;0.74;82.20
75646;BME280;64237;52.438;13.240;2022-11-20T09:14:30;100557.34;;;0.79;81.26
75646;BME280;64237;52.438;13.240;2022-11-20T09:16:56;100560.81;;;0.73;80.50
75646;BME280;64237;52.438;13.240;2022-11-20T09:19:21;100563.00;;;0.92;81.69
75646;BME280;64237;52.438;13.240;2022-11-20T09:21:46;100551.06;;;0.78;80.77
75646;BME280;64237;52.438;13.240;2022-11-20T09:24:12;100562.81;;;0.79;81.46
75646;BME280;64237;52.438;13.240;2022-11-20T09:26:37;100566.34;;;0.64;81.42
75646;BME280;64237;52.438;13.240;2022-11-20T09:29:03;100573.19;;;0.60;80.90
75646;BME280;64237;52.438;13.240;2022-11-20T09:31:28;100566.75;;;0.91;83.22
75646;BME280;64237;52.438;13.240;2022-11-20T09:33:54;100576.72;;;0.84;80.68
75646;BME280;64237;52.438;13.240;2022-11-20T09:36:20;100568.81;;;0.89;81.27
75646;BME280;64237;52.438;13.240;2022-11-20T09:38:46;100564.50;;;0.80;80.89
75646;BME280;64237;52.438;13.240;2022-11-20T09:44:14;100563.66;;;0.94;81.30
75646;BME280;64237;52.438;13.240;2022-11-20T09:47:01;100554.66;;;0.93;80.23
75646;BME280;64237;52.438;13.240;2022-11-20T09:54:45;100550.41;;;0.91;79.39
75646;BME280;64237;52.438;13.240;2022-11-20T09:57:19;100552.09;;;0.92;80.62
75646;BME280;64237;52.438;13.240;2022-11-20T09:59:50;100552.03;;;0.85;78.71
75646;BME280;64237;52.438;13.240;2022-11-20T10:02:34;100557.34;;;0.79;81.12
75646;BME280;64237;52.438;13.240;2022-11-20T10:05:08;100554.03;;;0.68;80.05
75646;BME280;64237;52.438;13.240;2022-11-20T10:07:44;100545.50;;;0.72;80.57
75646;BME280;64237;52.438;13.240;2022-11-20T10:10:17;100547.19;;;0.73;81.08
75646;BME280;64237;52.438;13.240;2022-11-20T10:13:40;100546.75;;;0.84;81.39
75646;BME280;64237;52.438;13.240;2022-11-20T10:21:56;100545.63;;;0.78;79.83
75646;BME280;64237;52.438;13.240;2022-11-20T10:24:38;100532.03;;;0.93;82.72
75646;BME280;64237;52.438;13.240;2022-11-20T10:27:18;100547.25;;;1.02;80.49
75646;BME280;64237;52.438;13.240;2022-11-20T10:30:01;100539.75;;;1.04;81.01
75646;BME280;64237;52.438;13.240;2022-11-20T10:32:34;100536.34;;;1.02;80.82
75646;BME280;64237;52.438;13.240;2022-11-20T10:35:07;100538.22;;;1.16;79.33
75646;BME280;64237;52.438;13.240;2022-11-20T10:37:44;100538.78;;;1.12;80.15
75646;BME280;64237;52.438;13.240;2022-11-20T10:40:22;100527.53;;;1.29;81.34
75646;BME280;64237;52.438;13.240;2022-11-20T10:42:58;100524.69;;;1.37;81.19
75646;BME280;64237;52.438;13.240;2022-11-20T10:47:52;100523.66;;;1.38;80.67
75646;BME280;64237;52.438;13.240;2022-11-20T10:50:20;100519.25;;;1.37;79.45
75646;BME280;64237;52.438;13.240;2022-11-20T10:55:42;100504.59;;;1.38;80.79
75646;BME280;64237;52.438;13.240;2022-11-20T11:00:37;100500.47;;;1.28;79.00
75646;BME280;64237;52.438;13.240;2022-11-20T11:03:22;100504.03;;;1.43;81.39
75646;BME280;64237;52.438;13.240;2022-11-20T11:06:02;100506.19;;;1.48;81.05
75646;BME280;64237;52.438;13.240;2022-11-20T11:08:34;100498.91;;;1.55;78.77
75646;BME280;64237;52.438;13.240;2022-11-20T11:11:34;100507.19;;;2.19;78.04
75646;BME280;64237;52.438;13.240;2022-11-20T11:14:10;100501.50;;;2.41;74.35
75646;BME280;64237;52.438;13.240;2022-11-20T11:16:35;100508.44;;;2.65;74.71
75646;BME280;64237;52.438;13.240;2022-11-20T11:19:13;100497.56;;;2.23;77.99
75646;BME280;64237;52.438;13.240;2022-11-20T11:21:38;100501.59;;;2.05;75.91
75646;BME280;64237;52.438;13.240;2022-11-20T11:24:25;100502.53;;;2.13;76.39
75646;BME280;64237;52.438;13.240;2022-11-20T11:27:02;100497.97;;;2.20;76.43
75646;BME280;64237;52.438;13.240;2022-11-20T11:29:30;100499.66;;;2.21;76.97
75646;BME280;64237;52.438;13.240;2022-11-20T11:32:07;100488.22;;;2.11;75.12
75646;BME280;64237;52.438;13.240;2022-11-20T11:34:33;100494.25;;;1.85;75.78
75646;BME280;64237;52.438;13.240;2022-11-20T11:37:00;100487.84;;;2.14;75.67
75646;BME280;64237;52.438;13.240;2022-11-20T11:39:29;100483.81;;;2.10;75.30
75646;BME280;64237;52.438;13.240;2022-11-20T11:41:55;100480.88;;;2.32;74.99
75646;BME280;64237;52.438;13.240;2022-11-20T11:44:28;100483.88;;;2.37;76.90
75646;BME280;64237;52.438;13.240;2022-11-20T11:47:23;100484.06;;;2.36;77.48
75646;BME280;64237;52.438;13.240;2022-11-20T11:49:59;100480.63;;;2.27;77.37
75646;BME280;64237;52.438;13.240;2022-11-20T11:52:25;100481.19;;;2.23;76.70
75646;BME280;64237;52.438;13.240;2022-11-20T11:55:03;100476.66;;;2.30;75.70
75646;BME280;64237;52.438;13.240;2022-11-20T11:57:47;100465.81;;;2.36;75.24
75646;BME280;64237;52.438;13.240;2022-11-20T12:00:20;100471.00;;;2.10;75.42
75646;BME280;64237;52.438;13.240;2022-11-20T12:05:42;100476.09;;;2.13;75.43
75646;BME280;64237;52.438;13.240;2022-11-20T12:16:00;100475.25;;;2.13;78.36
75646;BME280;64237;52.438;13.240;2022-11-20T12:18:27;100471.47;;;2.14;77.40
75646;BME280;64237;52.438;13.240;2022-11-20T12:21:20;100477.31;;;2.11;77.47
75646;BME280;64237;52.438;13.240;2022-11-20T12:26:51;100468.88;;;2.05;77.16
75646;BME280;64237;52.438;13.240;2022-11-20T12:29:48;100461.41;;;1.93;73.76
75646;BME280;64237;52.438;13.240;2022-11-20T12:33:18;100453.81;;;1.88;77.39
75646;BME280;64237;52.438;13.240;2022-11-20T12:43:29;100456.25;;;2.04;78.16
75646;BME280;64237;52.438;13.240;2022-11-20T12:46:26;100431.44;;;1.99;79.53
75646;BME280;64237;52.438;13.240;2022-11-20T12:54:52;100442.16;;;1.80;78.84
75646;BME280;64237;52.438;13.240;2022-11-20T13:00:22;100449.78;;;1.84;79.82
75646;BME280;64237;52.438;13.240;2022-11-20T13:05:40;100449.47;;;1.58;79.54
75646;BME280;64237;52.438;13.240;2022-11-20T13:08:21;100440.66;;;1.77;81.61
75646;BME280;64237;52.438;13.240;2022-11-20T13:13:45;100435.66;;;1.59;80.11
75646;BME280;64237;52.438;13.240;2022-11-20T13:16:22;100440.16;;;1.67;80.98
75646;BME280;64237;52.438;13.240;2022-11-20T13:18:50;100433.13;;;1.58;80.01
75646;BME280;64237;52.438;13.240;2022-11-20T13:21:34;100415.47;;;1.54;80.44
75646;BME280;64237;52.438;13.240;2022-11-20T13:24:29;100425.97;;;1.57;79.75
75646;BME280;64237;52.438;13.240;2022-11-20T13:29:33;100429.97;;;1.40;81.47
75646;BME280;64237;52.438;13.240;2022-11-20T13:32:03;100419.47;;;1.36;81.99
75646;BME280;64237;52.438;13.240;2022-11-20T13:34:29;100415.88;;;1.51;82.57
75646;BME280;64237;52.438;13.240;2022-11-20T13:36:57;100415.78;;;1.44;82.13
75646;BME280;64237;52.438;13.240;2022-11-20T13:39:49;100416.53;;;1.38;82.02
75646;BME280;64237;52.438;13.240;2022-11-20T13:44:46;100419.84;;;1.33;83.08
75646;BME280;64237;52.438;13.240;2022-11-20T13:47:26;100411.94;;;1.38;83.02
75646;BME280;64237;52.438;13.240;2022-11-20T13:49:54;100388.84;;;1.34;81.91
75646;BME280;64237;52.438;13.240;2022-11-20T13:57:51;100414.28;;;1.42;81.37
75646;BME280;64237;52.438;13.240;2022-11-20T14:00:24;100414.09;;;1.43;81.33
75646;BME280;64237;52.438;13.240;2022-11-20T14:05:34;100405.31;;;5.84;68.53
75646;BME280;64237;52.438;13.240;2022-11-20T14:08:03;100415.91;;;4.38;71.25
75646;BME280;64237;52.438;13.240;2022-11-20T14:10:29;100413.81;;;3.20;73.45
75646;BME280;64237;52.438;13.240;2022-11-20T14:12:55;100413.63;;;2.81;76.35
75646;BME280;64237;52.438;13.240;2022-11-20T14:15:33;100410.41;;;2.42;78.61